createdAt,value
2017-02-17T00:00:59.734Z,1023.59
2017-02-17T00:02:09.209Z,1023.55
2017-02-17T00:03:18.270Z,1023.59
2017-02-17T00:04:27.335Z,1023.53
2017-02-17T00:05:36.784Z,1023.56
2017-02-17T00:06:46.652Z,1023.54
2017-02-17T00:07:55.752Z,1023.53
2017-02-17T00:09:05.590Z,1023.49
2017-02-17T00:10:15.041Z,1023.56
2017-02-17T00:11:24.507Z,1023.57
2017-02-17T00:12:33.954Z,1023.51
2017-02-17T00:13:43.401Z,1023.51
2017-02-17T00:14:52.570Z,1023.53
2017-02-17T00:16:02.423Z,1023.52
2017-02-17T00:17:11.894Z,1023.45
2017-02-17T00:18:21.344Z,1023.49
2017-02-17T00:19:30.801Z,1023.47
2017-02-17T00:20:40.657Z,1023.43
2017-02-17T00:21:50.139Z,1023.44
2017-02-17T00:22:59.585Z,1023.45
2017-02-17T00:24:09.038Z,1023.4
2017-02-17T00:25:18.092Z,1023.4
2017-02-17T00:26:28.311Z,1023.35
2017-02-17T00:27:37.778Z,1023.35
2017-02-17T00:28:46.855Z,1023.39
2017-02-17T00:29:55.534Z,1023.37
2017-02-17T00:31:04.990Z,1023.4
2017-02-17T00:32:14.159Z,1023.33
2017-02-17T00:33:23.233Z,1023.38
2017-02-17T00:34:31.940Z,1023.37
2017-02-17T00:35:40.641Z,1023.35
2017-02-17T00:36:50.076Z,1023.35
2017-02-17T00:37:59.172Z,1023.27
2017-02-17T00:39:08.225Z,1023.3
2017-02-17T00:40:17.319Z,1023.3
2017-02-17T00:41:26.016Z,1023.26
2017-02-17T00:42:35.834Z,1023.22
2017-02-17T00:43:44.907Z,1023.33
2017-02-17T00:44:53.972Z,1023.34
2017-02-17T00:46:02.652Z,1023.26
2017-02-17T00:47:11.716Z,1023.37
2017-02-17T00:48:21.160Z,1023.26
2017-02-17T00:49:30.233Z,1023.32
2017-02-17T00:50:39.682Z,1023.34
2017-02-17T00:51:48.370Z,1023.31
2017-02-17T00:52:57.438Z,1023.3
2017-02-17T00:54:06.908Z,1023.31
2017-02-17T00:55:15.594Z,1023.33
2017-02-17T00:56:24.296Z,1023.31
2017-02-17T00:57:32.991Z,1023.28
2017-02-17T00:58:42.043Z,1023.28
2017-02-17T00:59:51.891Z,1023.21
2017-02-17T01:01:02.121Z,1023.15
2017-02-17T01:02:11.190Z,1023.22
2017-02-17T01:03:19.884Z,1023.26
2017-02-17T01:04:29.335Z,1023.19
2017-02-17T01:05:38.798Z,1023.26
2017-02-17T01:06:47.513Z,1023.21
2017-02-17T01:07:56.578Z,1023.18
2017-02-17T01:09:06.023Z,1023.23
2017-02-17T01:10:15.846Z,1023.18
2017-02-17T01:11:25.687Z,1023.24
2017-02-17T01:12:35.134Z,1023.22
2017-02-17T01:13:44.979Z,1023.3
2017-02-17T01:14:54.427Z,1023.27
2017-02-17T01:16:03.889Z,1023.25
2017-02-17T01:17:12.958Z,1023.3
2017-02-17T01:18:21.668Z,1023.28
2017-02-17T01:19:30.755Z,1023.29
2017-02-17T01:20:39.855Z,1023.25
2017-02-17T01:21:49.313Z,1023.31
2017-02-17T01:22:59.150Z,1023.26
2017-02-17T01:24:08.977Z,1023.3
2017-02-17T01:25:18.813Z,1023.22
2017-02-17T01:26:28.650Z,1023.27
2017-02-17T01:27:37.391Z,1023.33
2017-02-17T01:28:46.457Z,1023.27
2017-02-17T01:29:55.522Z,1023.23
2017-02-17T01:31:04.605Z,1023.23
2017-02-17T01:32:13.304Z,1023.24
2017-02-17T01:33:22.381Z,1023.28
2017-02-17T01:34:31.442Z,1023.2
2017-02-17T01:35:40.141Z,1023.23
2017-02-17T01:36:49.206Z,1023.18
2017-02-17T01:37:58.263Z,1023.18
2017-02-17T01:39:07.729Z,1023.12
2017-02-17T01:40:17.158Z,1023.11
2017-02-17T01:41:26.596Z,1023.13
2017-02-17T01:42:36.050Z,1023.09
2017-02-17T01:43:45.493Z,1023.07
2017-02-17T01:44:54.935Z,1023.13
2017-02-17T01:46:03.625Z,1023.09
2017-02-17T01:47:12.693Z,1023.11
2017-02-17T01:48:21.385Z,1023.12
2017-02-17T01:49:30.471Z,1023.13
2017-02-17T01:50:39.531Z,1023.07
2017-02-17T01:51:48.993Z,1023.09
2017-02-17T01:52:57.671Z,1023.08
2017-02-17T01:54:07.148Z,1023.04
2017-02-17T01:55:16.211Z,1023
2017-02-17T01:56:26.040Z,1023
2017-02-17T01:57:35.096Z,1023.02
2017-02-17T01:58:44.929Z,1022.97
2017-02-17T01:59:54.385Z,1022.99
2017-02-17T02:01:04.205Z,1022.93
2017-02-17T02:02:13.260Z,1022.94
2017-02-17T02:03:23.101Z,1022.94
2017-02-17T02:04:32.179Z,1022.97
2017-02-17T02:05:40.883Z,1022.93
2017-02-17T02:06:50.321Z,1022.89
2017-02-17T02:07:59.387Z,1022.87
2017-02-17T02:09:08.833Z,1022.85
2017-02-17T02:10:18.296Z,1022.8
2017-02-17T02:11:27.366Z,1022.92
2017-02-17T02:12:36.816Z,1022.89
2017-02-17T02:13:45.491Z,1022.88
2017-02-17T02:14:54.552Z,1022.83
2017-02-17T02:16:03.241Z,1022.82
2017-02-17T02:17:11.917Z,1022.83
2017-02-17T02:18:20.999Z,1022.85
2017-02-17T02:19:30.456Z,1022.84
2017-02-17T02:20:39.893Z,1022.87
2017-02-17T02:21:49.396Z,1022.82
2017-02-17T02:22:59.218Z,1022.75
2017-02-17T02:24:08.647Z,1022.77
2017-02-17T02:25:17.327Z,1022.71
2017-02-17T02:26:26.790Z,1022.76
2017-02-17T02:27:35.862Z,1022.66
2017-02-17T02:28:45.319Z,1022.71
2017-02-17T02:29:55.143Z,1022.72
2017-02-17T02:31:04.230Z,1022.65
2017-02-17T02:32:14.069Z,1022.7
2017-02-17T02:33:22.759Z,1022.65
2017-02-17T02:34:31.842Z,1022.68
2017-02-17T02:35:40.533Z,1022.66
2017-02-17T02:36:50.751Z,1022.66
2017-02-17T02:37:59.828Z,1022.72
2017-02-17T02:39:10.031Z,1022.71
2017-02-17T02:40:19.104Z,1022.69
2017-02-17T02:41:27.793Z,1022.67
2017-02-17T02:42:36.863Z,1022.68
2017-02-17T02:43:45.542Z,1022.69
2017-02-17T02:44:54.617Z,1022.67
2017-02-17T02:46:04.453Z,1022.68
2017-02-17T02:47:13.528Z,1022.64
2017-02-17T02:48:22.972Z,1022.69
2017-02-17T02:49:31.655Z,1022.67
2017-02-17T02:50:40.739Z,1022.67
2017-02-17T02:51:49.799Z,1022.65
2017-02-17T02:52:59.242Z,1022.63
2017-02-17T02:54:08.350Z,1022.64
2017-02-17T02:55:17.410Z,1022.57
2017-02-17T02:56:26.851Z,1022.6
2017-02-17T02:57:37.067Z,1022.6
2017-02-17T02:58:46.503Z,1022.59
2017-02-17T02:59:55.941Z,1022.58
2017-02-17T03:01:05.385Z,1022.58
2017-02-17T03:02:14.449Z,1022.59
2017-02-17T03:03:23.147Z,1022.53
2017-02-17T03:04:32.227Z,1022.54
2017-02-17T03:05:42.045Z,1022.53
2017-02-17T03:06:51.522Z,1022.58
2017-02-17T03:08:01.386Z,1022.51
2017-02-17T03:09:10.070Z,1022.55
2017-02-17T03:10:19.516Z,1022.49
2017-02-17T03:11:28.198Z,1022.53
2017-02-17T03:12:38.421Z,1022.52
2017-02-17T03:13:47.872Z,1022.53
2017-02-17T03:14:56.958Z,1022.52
2017-02-17T03:16:06.022Z,1022.46
2017-02-17T03:17:15.094Z,1022.51
2017-02-17T03:18:24.155Z,1022.44
2017-02-17T03:19:33.222Z,1022.43
2017-02-17T03:20:41.915Z,1022.42
2017-02-17T03:21:50.595Z,1022.44
2017-02-17T03:23:00.435Z,1022.4
2017-02-17T03:24:09.515Z,1022.43
2017-02-17T03:25:18.583Z,1022.44
2017-02-17T03:26:27.310Z,1022.43
2017-02-17T03:27:36.762Z,1022.48
2017-02-17T03:28:46.203Z,1022.44
2017-02-17T03:29:55.274Z,1022.41
2017-02-17T03:31:04.715Z,1022.38
2017-02-17T03:32:13.405Z,1022.36
2017-02-17T03:33:22.849Z,1022.36
2017-02-17T03:34:32.667Z,1022.36
2017-02-17T03:35:42.131Z,1022.29
2017-02-17T03:36:51.567Z,1022.28
2017-02-17T03:38:00.663Z,1022.32
2017-02-17T03:39:10.115Z,1022.28
2017-02-17T03:40:19.189Z,1022.25
2017-02-17T03:41:29.013Z,1022.32
2017-02-17T03:42:38.465Z,1022.31
2017-02-17T03:43:47.534Z,1022.22
2017-02-17T03:44:56.585Z,1022.24
2017-02-17T03:46:05.271Z,1022.19
2017-02-17T03:47:14.344Z,1022.18
2017-02-17T03:48:23.815Z,1022.21
2017-02-17T03:49:32.514Z,1022.25
2017-02-17T03:50:41.604Z,1022.27
2017-02-17T03:51:50.677Z,1022.23
2017-02-17T03:53:00.509Z,1022.25
2017-02-17T03:54:09.960Z,1022.2
2017-02-17T03:55:19.412Z,1022.15
2017-02-17T03:56:29.245Z,1022.22
2017-02-17T03:57:38.322Z,1022.24
2017-02-17T03:58:47.781Z,1022.25
2017-02-17T03:59:57.240Z,1022.22
2017-02-17T04:01:06.306Z,1022.22
2017-02-17T04:02:15.392Z,1022.24
2017-02-17T04:03:24.456Z,1022.23
2017-02-17T04:04:34.296Z,1022.2
2017-02-17T04:05:43.766Z,1022.23
2017-02-17T04:06:52.832Z,1022.13
2017-02-17T04:08:02.699Z,1022.17
2017-02-17T04:09:12.538Z,1022.15
2017-02-17T04:10:21.991Z,1022.18
2017-02-17T04:11:31.066Z,1022.18
2017-02-17T04:12:40.516Z,1022.14
2017-02-17T04:13:49.981Z,1022.1
2017-02-17T04:14:59.043Z,1022.13
2017-02-17T04:16:08.117Z,1022.16
2017-02-17T04:17:17.598Z,1022.07
2017-02-17T04:18:26.679Z,1022.13
2017-02-17T04:19:36.548Z,1022.11
2017-02-17T04:20:45.995Z,1022.16
2017-02-17T04:21:55.835Z,1022.1
2017-02-17T04:23:05.295Z,1022.07
2017-02-17T04:24:15.134Z,1022.15
2017-02-17T04:25:24.181Z,1022.11
2017-02-17T04:26:34.009Z,1022.09
2017-02-17T04:27:43.444Z,1022.1
2017-02-17T04:28:52.882Z,1021.99
2017-02-17T04:30:01.944Z,1022
2017-02-17T04:31:10.998Z,1021.96
2017-02-17T04:32:20.100Z,1021.97
2017-02-17T04:33:29.203Z,1021.95
2017-02-17T04:34:38.280Z,1022.01
2017-02-17T04:35:46.977Z,1021.98
2017-02-17T04:36:56.418Z,1021.92
2017-02-17T04:38:05.887Z,1021.89
2017-02-17T04:39:15.356Z,1021.91
2017-02-17T04:40:25.203Z,1021.88
2017-02-17T04:41:34.669Z,1021.91
2017-02-17T04:42:44.881Z,1021.88
2017-02-17T04:43:54.358Z,1021.92
2017-02-17T04:45:03.035Z,1021.92
2017-02-17T04:46:11.725Z,1021.9
2017-02-17T04:47:21.556Z,1021.93
2017-02-17T04:48:30.627Z,1021.92
2017-02-17T04:49:40.082Z,1021.9
2017-02-17T04:50:49.160Z,1021.86
2017-02-17T04:51:58.592Z,1021.89
2017-02-17T04:53:07.681Z,1021.84
2017-02-17T04:54:17.142Z,1021.8
2017-02-17T04:55:26.586Z,1021.79
2017-02-17T04:56:35.641Z,1021.81
2017-02-17T04:57:45.086Z,1021.83
2017-02-17T04:58:54.921Z,1021.84
2017-02-17T05:00:03.988Z,1021.77
2017-02-17T05:01:13.435Z,1021.74
2017-02-17T05:02:22.145Z,1021.73
2017-02-17T05:03:31.983Z,1021.78
2017-02-17T05:04:41.057Z,1021.82
2017-02-17T05:05:50.497Z,1021.86
2017-02-17T05:06:59.947Z,1021.78
2017-02-17T05:08:09.393Z,1021.82
2017-02-17T05:09:18.840Z,1021.85
2017-02-17T05:10:28.308Z,1021.79
2017-02-17T05:11:38.139Z,1021.82
2017-02-17T05:12:47.607Z,1021.81
2017-02-17T05:13:56.675Z,1021.83
2017-02-17T05:15:06.523Z,1021.8
2017-02-17T05:16:15.963Z,1021.74
2017-02-17T05:17:25.423Z,1021.78
2017-02-17T05:18:34.479Z,1021.79
2017-02-17T05:19:43.924Z,1021.71
2017-02-17T05:20:53.385Z,1021.73
2017-02-17T05:22:02.058Z,1021.69
2017-02-17T05:23:11.510Z,1021.71
2017-02-17T05:24:20.975Z,1021.72
2017-02-17T05:25:31.202Z,1021.69
2017-02-17T05:26:40.658Z,1021.63
2017-02-17T05:27:49.733Z,1021.67
2017-02-17T05:28:58.815Z,1021.68
2017-02-17T05:30:07.880Z,1021.64
2017-02-17T05:31:17.714Z,1021.64
2017-02-17T05:32:27.176Z,1021.68
2017-02-17T05:33:36.613Z,1021.64
2017-02-17T05:34:46.444Z,1021.69
2017-02-17T05:35:55.915Z,1021.64
2017-02-17T05:37:05.742Z,1021.63
2017-02-17T05:38:14.798Z,1021.62
2017-02-17T05:39:23.876Z,1021.63
2017-02-17T05:40:33.732Z,1021.64
2017-02-17T05:41:42.803Z,1021.65
2017-02-17T05:42:51.894Z,1021.64
2017-02-17T05:44:01.726Z,1021.64
2017-02-17T05:45:10.806Z,1021.65
2017-02-17T05:46:20.628Z,1021.65
2017-02-17T05:47:29.316Z,1021.61
2017-02-17T05:48:38.392Z,1021.61
2017-02-17T05:49:47.883Z,1021.6
2017-02-17T05:50:57.343Z,1021.58
2017-02-17T05:52:06.807Z,1021.56
2017-02-17T05:53:15.493Z,1021.55
2017-02-17T05:54:24.591Z,1021.55
2017-02-17T05:55:33.276Z,1021.54
2017-02-17T05:56:43.101Z,1021.58
2017-02-17T05:57:52.565Z,1021.51
2017-02-17T05:59:02.006Z,1021.52
2017-02-17T06:00:11.087Z,1021.48
2017-02-17T06:01:20.529Z,1021.5
2017-02-17T06:02:30.394Z,1021.48
2017-02-17T06:03:39.089Z,1021.45
2017-02-17T06:04:47.797Z,1021.48
2017-02-17T06:05:56.866Z,1021.48
2017-02-17T06:07:06.324Z,1021.53
2017-02-17T06:08:15.391Z,1021.46
2017-02-17T06:09:24.101Z,1021.53
2017-02-17T06:10:33.557Z,1021.53
2017-02-17T06:11:43.387Z,1021.42
2017-02-17T06:12:52.841Z,1021.49
2017-02-17T06:14:01.533Z,1021.47
2017-02-17T06:15:10.999Z,1021.53
2017-02-17T06:16:20.445Z,1021.53
2017-02-17T06:17:29.510Z,1021.56
2017-02-17T06:18:38.606Z,1021.59
2017-02-17T06:19:47.670Z,1021.57
2017-02-17T06:20:57.139Z,1021.57
2017-02-17T06:22:05.830Z,1021.59
2017-02-17T06:23:14.519Z,1021.57
2017-02-17T06:24:23.206Z,1021.56
2017-02-17T06:25:33.039Z,1021.63
2017-02-17T06:26:42.493Z,1021.59
2017-02-17T06:27:51.983Z,1021.58
2017-02-17T06:29:01.828Z,1021.55
2017-02-17T06:30:10.906Z,1021.61
2017-02-17T06:31:19.983Z,1021.58
2017-02-17T06:32:29.052Z,1021.61
2017-02-17T06:33:38.518Z,1021.59
2017-02-17T06:34:47.199Z,1021.56
2017-02-17T06:35:55.895Z,1021.53
2017-02-17T06:37:05.331Z,1021.56
2017-02-17T06:38:15.182Z,1021.54
2017-02-17T06:39:23.883Z,1021.58
2017-02-17T06:40:32.943Z,1021.49
2017-02-17T06:41:42.404Z,1021.52
2017-02-17T06:42:52.223Z,1021.53
2017-02-17T06:44:02.446Z,1021.55
2017-02-17T06:45:11.926Z,1021.57
2017-02-17T06:46:21.007Z,1021.53
2017-02-17T06:47:30.066Z,1021.55
2017-02-17T06:48:39.126Z,1021.55
2017-02-17T06:49:48.602Z,1021.61
2017-02-17T06:50:58.065Z,1021.64
2017-02-17T06:52:07.912Z,1021.62
2017-02-17T06:53:16.979Z,1021.66
2017-02-17T06:54:26.055Z,1021.65
2017-02-17T06:55:35.118Z,1021.61
2017-02-17T06:56:44.563Z,1021.66
2017-02-17T06:57:53.651Z,1021.63
2017-02-17T06:59:03.485Z,1021.71
2017-02-17T07:00:12.567Z,1021.65
2017-02-17T07:01:21.266Z,1021.67
2017-02-17T07:02:30.985Z,1021.65
2017-02-17T07:03:39.677Z,1021.68
2017-02-17T07:04:48.746Z,1021.68
2017-02-17T07:05:57.417Z,1021.69
2017-02-17T07:07:06.854Z,1021.68
2017-02-17T07:08:16.302Z,1021.69
2017-02-17T07:09:25.400Z,1021.77
2017-02-17T07:10:34.460Z,1021.7
2017-02-17T07:11:43.541Z,1021.67
2017-02-17T07:12:52.240Z,1021.66
2017-02-17T07:14:01.305Z,1021.68
2017-02-17T07:15:09.995Z,1021.64
2017-02-17T07:16:19.442Z,1021.7
2017-02-17T07:17:28.923Z,1021.7
2017-02-17T07:18:37.611Z,1021.72
2017-02-17T07:19:47.066Z,1021.69
2017-02-17T07:20:56.147Z,1021.73
2017-02-17T07:22:05.607Z,1021.76
2017-02-17T07:23:14.287Z,1021.73
2017-02-17T07:24:23.340Z,1021.74
2017-02-17T07:25:33.193Z,1021.72
2017-02-17T07:26:42.281Z,1021.74
2017-02-17T07:27:52.114Z,1021.71
2017-02-17T07:29:01.968Z,1021.72
2017-02-17T07:30:11.408Z,1021.72
2017-02-17T07:31:20.471Z,1021.73
2017-02-17T07:32:29.924Z,1021.76
2017-02-17T07:33:39.770Z,1021.68
2017-02-17T07:34:48.843Z,1021.7
2017-02-17T07:35:57.525Z,1021.67
2017-02-17T07:37:06.591Z,1021.66
2017-02-17T07:38:15.660Z,1021.73
2017-02-17T07:39:25.112Z,1021.81
2017-02-17T07:40:34.550Z,1021.77
2017-02-17T07:41:43.614Z,1021.77
2017-02-17T07:42:53.445Z,1021.8
2017-02-17T07:44:02.893Z,1021.77
2017-02-17T07:45:12.341Z,1021.78
2017-02-17T07:46:22.156Z,1021.74
2017-02-17T07:47:31.209Z,1021.77
2017-02-17T07:48:41.436Z,1021.78
2017-02-17T07:49:50.497Z,1021.8
2017-02-17T07:50:59.983Z,1021.81
2017-02-17T07:52:09.436Z,1021.81
2017-02-17T07:53:18.495Z,1021.8
2017-02-17T07:54:27.951Z,1021.83
2017-02-17T07:55:37.406Z,1021.83
2017-02-17T07:56:46.847Z,1021.86
2017-02-17T07:57:56.294Z,1021.84
2017-02-17T07:59:06.510Z,1021.84
2017-02-17T08:00:15.581Z,1021.9
2017-02-17T08:01:24.650Z,1021.91
2017-02-17T08:02:33.732Z,1021.93
2017-02-17T08:03:43.183Z,1021.88
2017-02-17T08:04:52.238Z,1021.91
2017-02-17T08:06:01.307Z,1021.83
2017-02-17T08:07:10.773Z,1021.85
2017-02-17T08:08:19.838Z,1021.86
2017-02-17T08:09:29.666Z,1021.84
2017-02-17T08:10:38.727Z,1021.84
2017-02-17T08:11:48.185Z,1021.83
2017-02-17T08:12:57.272Z,1021.82
2017-02-17T08:14:07.120Z,1021.77
2017-02-17T08:15:16.184Z,1021.77
2017-02-17T08:16:25.266Z,1021.71
2017-02-17T08:17:35.470Z,1021.68
2017-02-17T08:18:44.543Z,1021.71
2017-02-17T08:19:53.991Z,1021.64
2017-02-17T08:21:03.457Z,1021.65
2017-02-17T08:22:13.302Z,1021.67
2017-02-17T08:23:23.168Z,1021.72
2017-02-17T08:24:33.017Z,1021.69
2017-02-17T08:25:42.097Z,1021.7
2017-02-17T08:26:50.783Z,1021.68
2017-02-17T08:28:00.248Z,1021.71
2017-02-17T08:29:09.686Z,1021.76
2017-02-17T08:30:19.138Z,1021.74
2017-02-17T08:31:28.211Z,1021.79
2017-02-17T08:32:38.040Z,1021.83
2017-02-17T08:33:47.880Z,1021.81
2017-02-17T08:34:57.334Z,1021.86
2017-02-17T08:36:07.195Z,1021.85
2017-02-17T08:37:16.289Z,1021.83
2017-02-17T08:38:24.960Z,1021.87
2017-02-17T08:39:33.650Z,1021.84
2017-02-17T08:40:43.119Z,1021.89
2017-02-17T08:41:52.213Z,1021.89
2017-02-17T08:43:02.036Z,1021.96
2017-02-17T08:44:11.871Z,1021.95
2017-02-17T08:45:21.310Z,1021.98
2017-02-17T08:46:30.386Z,1021.93
2017-02-17T08:47:39.447Z,1021.99
2017-02-17T08:48:48.510Z,1021.96
2017-02-17T08:49:57.572Z,1021.96
2017-02-17T08:51:07.788Z,1021.96
2017-02-17T08:52:16.473Z,1021.95
2017-02-17T08:53:26.314Z,1021.97
2017-02-17T08:54:35.616Z,1021.92
2017-02-17T08:55:44.709Z,1021.98
2017-02-17T08:56:54.158Z,1021.92
2017-02-17T08:58:03.608Z,1021.95
2017-02-17T08:59:12.684Z,1021.98
2017-02-17T09:00:21.784Z,1021.95
2017-02-17T09:01:30.492Z,1021.92
2017-02-17T09:02:39.590Z,1022.04
2017-02-17T09:03:48.663Z,1021.99
2017-02-17T09:04:58.111Z,1022.01
2017-02-17T09:06:07.942Z,1021.97
2017-02-17T09:07:17.378Z,1021.94
2017-02-17T09:08:26.074Z,1021.99
2017-02-17T09:09:35.513Z,1022
2017-02-17T09:10:44.591Z,1021.98
2017-02-17T09:11:53.652Z,1022
2017-02-17T09:13:03.106Z,1021.93
2017-02-17T09:14:12.194Z,1021.97
2017-02-17T09:15:21.658Z,1021.96
2017-02-17T09:16:30.738Z,1022
2017-02-17T09:17:39.821Z,1022.01
2017-02-17T09:18:49.252Z,1021.97
2017-02-17T09:19:58.332Z,1021.97
2017-02-17T09:21:07.786Z,1021.91
2017-02-17T09:22:17.603Z,1021.9
2017-02-17T09:23:27.074Z,1021.85
2017-02-17T09:24:36.532Z,1021.84
2017-02-17T09:25:45.230Z,1021.84
2017-02-17T09:26:54.689Z,1021.84
2017-02-17T09:28:03.773Z,1021.79
2017-02-17T09:29:12.469Z,1021.88
2017-02-17T09:30:21.580Z,1021.88
2017-02-17T09:31:30.264Z,1021.88
2017-02-17T09:32:39.714Z,1021.89
2017-02-17T09:33:48.400Z,1021.93
2017-02-17T09:34:58.253Z,1021.89
2017-02-17T09:36:07.721Z,1021.97
2017-02-17T09:37:17.161Z,1022.03
2017-02-17T09:38:26.636Z,1022
2017-02-17T09:39:35.335Z,1022.01
2017-02-17T09:40:44.789Z,1022.01
2017-02-17T09:41:54.239Z,1021.98
2017-02-17T09:43:04.440Z,1021.98
2017-02-17T09:44:13.507Z,1021.97
2017-02-17T09:45:22.965Z,1021.99
2017-02-17T09:46:32.032Z,1021.99
2017-02-17T09:47:41.086Z,1021.96
2017-02-17T09:48:50.595Z,1022
2017-02-17T09:50:00.061Z,1022.03
2017-02-17T09:51:09.501Z,1022.02
2017-02-17T09:52:18.200Z,1021.99
2017-02-17T09:53:27.643Z,1022.05
2017-02-17T09:54:36.728Z,1022.08
2017-02-17T09:55:46.204Z,1022
2017-02-17T09:56:55.643Z,1022.05
2017-02-17T09:58:05.115Z,1022.01
2017-02-17T09:59:14.597Z,1022.03
2017-02-17T10:00:23.666Z,1022.08
2017-02-17T10:01:32.740Z,1022.11
2017-02-17T10:02:42.202Z,1022.18
2017-02-17T10:03:51.677Z,1022.27
2017-02-17T10:05:00.375Z,1022.33
2017-02-17T10:06:09.835Z,1022.32
2017-02-17T10:07:19.683Z,1022.34
2017-02-17T10:08:28.424Z,1022.39
2017-02-17T10:09:37.894Z,1022.35
2017-02-17T10:10:47.367Z,1022.38
2017-02-17T10:11:57.576Z,1022.41
2017-02-17T10:13:07.048Z,1022.43
2017-02-17T10:14:16.516Z,1022.34
2017-02-17T10:15:25.600Z,1022.31
2017-02-17T10:16:34.307Z,1022.36
2017-02-17T10:17:43.759Z,1022.29
2017-02-17T10:18:53.202Z,1022.34
2017-02-17T10:20:02.717Z,1022.33
2017-02-17T10:21:12.543Z,1022.33
2017-02-17T10:22:21.602Z,1022.3
2017-02-17T10:23:31.814Z,1022.34
2017-02-17T10:24:40.879Z,1022.36
2017-02-17T10:25:50.371Z,1022.32
2017-02-17T10:26:59.815Z,1022.37
2017-02-17T10:28:09.637Z,1022.34
2017-02-17T10:29:19.082Z,1022.35
2017-02-17T10:30:28.145Z,1022.32
2017-02-17T10:31:37.603Z,1022.36
2017-02-17T10:32:46.294Z,1022.38
2017-02-17T10:33:55.362Z,1022.36
2017-02-17T10:35:04.822Z,1022.33
2017-02-17T10:36:14.262Z,1022.4
2017-02-17T10:37:23.331Z,1022.42
2017-02-17T10:38:32.406Z,1022.42
2017-02-17T10:39:42.233Z,1022.37
2017-02-17T10:40:51.694Z,1022.4
2017-02-17T10:42:01.136Z,1022.45
2017-02-17T10:43:10.199Z,1022.42
2017-02-17T10:44:19.265Z,1022.44
2017-02-17T10:45:27.957Z,1022.48
2017-02-17T10:46:37.033Z,1022.47
2017-02-17T10:47:46.101Z,1022.42
2017-02-17T10:48:55.562Z,1022.42
2017-02-17T10:50:04.639Z,1022.42
2017-02-17T10:51:13.702Z,1022.47
2017-02-17T10:52:23.550Z,1022.59
2017-02-17T10:53:32.627Z,1022.56
2017-02-17T10:54:41.704Z,1022.61
2017-02-17T10:55:50.382Z,1022.6
2017-02-17T10:57:00.255Z,1022.61
2017-02-17T10:58:09.712Z,1022.63
2017-02-17T10:59:18.774Z,1022.57
2017-02-17T11:00:28.625Z,1022.61
2017-02-17T11:01:38.083Z,1022.59
2017-02-17T11:02:47.542Z,1022.53
2017-02-17T11:03:57.003Z,1022.56
2017-02-17T11:05:06.450Z,1022.49
2017-02-17T11:06:15.522Z,1022.52
2017-02-17T11:07:25.367Z,1022.58
2017-02-17T11:08:35.194Z,1022.55
2017-02-17T11:09:44.252Z,1022.53
2017-02-17T11:10:53.717Z,1022.52
2017-02-17T11:12:03.570Z,1022.54
2017-02-17T11:13:13.029Z,1022.49
2017-02-17T11:14:21.735Z,1022.56
2017-02-17T11:15:31.581Z,1022.51
2017-02-17T11:16:41.072Z,1022.55
2017-02-17T11:17:50.513Z,1022.51
2017-02-17T11:18:59.978Z,1022.59
2017-02-17T11:20:09.805Z,1022.57
2017-02-17T11:21:18.897Z,1022.56
2017-02-17T11:22:27.980Z,1022.56
2017-02-17T11:23:36.672Z,1022.59
2017-02-17T11:24:46.899Z,1022.65
2017-02-17T11:25:55.959Z,1022.66
2017-02-17T11:27:05.029Z,1022.68
2017-02-17T11:28:14.090Z,1022.65
2017-02-17T11:29:23.920Z,1022.68
2017-02-17T11:30:33.374Z,1022.65
2017-02-17T11:31:42.443Z,1022.66
2017-02-17T11:32:51.899Z,1022.65
2017-02-17T11:34:00.574Z,1022.58
2017-02-17T11:35:09.280Z,1022.56
2017-02-17T11:36:17.955Z,1022.61
2017-02-17T11:37:27.026Z,1022.62
2017-02-17T11:38:36.471Z,1022.55
2017-02-17T11:39:45.924Z,1022.54
2017-02-17T11:40:54.621Z,1022.52
2017-02-17T11:42:03.297Z,1022.44
2017-02-17T11:43:12.740Z,1022.47
2017-02-17T11:44:21.820Z,1022.53
2017-02-17T11:45:31.275Z,1022.41
2017-02-17T11:46:41.147Z,1022.38
2017-02-17T11:47:50.987Z,1022.35
2017-02-17T11:49:00.072Z,1022.33
2017-02-17T11:50:09.153Z,1022.36
2017-02-17T11:51:18.240Z,1022.47
2017-02-17T11:52:26.947Z,1022.41
2017-02-17T11:53:36.050Z,1022.41
2017-02-17T11:54:45.526Z,1022.4
2017-02-17T11:55:54.589Z,1022.44
2017-02-17T11:57:04.445Z,1022.48
2017-02-17T11:58:14.298Z,1022.43
2017-02-17T11:59:23.371Z,1022.38
2017-02-17T12:00:33.209Z,1022.41
2017-02-17T12:01:42.680Z,1022.46
2017-02-17T12:02:51.367Z,1022.47
2017-02-17T12:04:00.825Z,1022.47
2017-02-17T12:05:10.682Z,1022.5
2017-02-17T12:06:19.743Z,1022.63
2017-02-17T12:07:29.574Z,1022.59
2017-02-17T12:08:38.689Z,1022.56
2017-02-17T12:09:47.750Z,1022.58
2017-02-17T12:10:56.447Z,1022.56
2017-02-17T12:12:05.900Z,1022.57
2017-02-17T12:13:14.578Z,1022.59
2017-02-17T12:14:24.460Z,1022.57
2017-02-17T12:15:33.915Z,1022.61
2017-02-17T12:16:43.386Z,1022.63
2017-02-17T12:17:53.241Z,1022.64
2017-02-17T12:19:02.691Z,1022.67
2017-02-17T12:20:12.154Z,1022.68
2017-02-17T12:21:21.230Z,1022.69
2017-02-17T12:22:30.694Z,1022.62
2017-02-17T12:23:39.395Z,1022.64
2017-02-17T12:24:48.855Z,1022.66
2017-02-17T12:25:58.680Z,1022.65
2017-02-17T12:27:07.759Z,1022.65
2017-02-17T12:28:16.524Z,1022.66
2017-02-17T12:29:25.982Z,1022.57
2017-02-17T12:30:34.664Z,1022.64
2017-02-17T12:31:44.122Z,1022.67
2017-02-17T12:32:53.573Z,1022.6
2017-02-17T12:34:02.646Z,1022.64
2017-02-17T12:35:11.352Z,1022.56
2017-02-17T12:36:20.055Z,1022.59
2017-02-17T12:37:29.133Z,1022.58
2017-02-17T12:38:37.827Z,1022.55
2017-02-17T12:39:46.903Z,1022.62
2017-02-17T12:40:56.367Z,1022.6
2017-02-17T12:42:06.213Z,1022.6
2017-02-17T12:43:16.050Z,1022.6
2017-02-17T12:44:24.746Z,1022.57
2017-02-17T12:45:34.397Z,1022.55
2017-02-17T12:46:43.852Z,1022.5
2017-02-17T12:47:52.943Z,1022.49
2017-02-17T12:49:02.770Z,1022.52
2017-02-17T12:50:11.860Z,1022.57
2017-02-17T12:51:21.689Z,1022.56
2017-02-17T12:52:31.515Z,1022.56
2017-02-17T12:53:40.962Z,1022.54
2017-02-17T12:54:50.430Z,1022.52
2017-02-17T12:55:59.926Z,1022.3
2017-02-17T12:57:09.370Z,1022.37
2017-02-17T12:58:18.823Z,1022.45
2017-02-17T12:59:28.673Z,1022.4
2017-02-17T13:00:37.739Z,1022.39
2017-02-17T13:01:47.220Z,1022.44
2017-02-17T13:02:57.078Z,1022.35
2017-02-17T13:04:06.546Z,1022.51
2017-02-17T13:05:15.616Z,1022.54
2017-02-17T13:06:24.299Z,1022.58
2017-02-17T13:07:35.785Z,1022.6
2017-02-17T13:08:44.915Z,1022.62
2017-02-17T13:09:54.777Z,1022.44
2017-02-17T13:11:04.625Z,1022.47
2017-02-17T13:12:13.312Z,1022.59
2017-02-17T13:13:22.755Z,1022.57
2017-02-17T13:14:32.209Z,1022.48
2017-02-17T13:15:42.041Z,1022.41
2017-02-17T13:16:51.123Z,1022.4
2017-02-17T13:18:00.585Z,1022.44
2017-02-17T13:19:10.051Z,1022.4
2017-02-17T13:20:19.502Z,1022.46
2017-02-17T13:21:28.958Z,1022.51
2017-02-17T13:22:38.796Z,1022.44
2017-02-17T13:23:48.648Z,1022.52
2017-02-17T13:24:58.093Z,1022.48
2017-02-17T13:26:07.576Z,1022.45
2017-02-17T13:27:17.439Z,1022.48
2017-02-17T13:28:26.126Z,1022.35
2017-02-17T13:29:35.196Z,1022.5
2017-02-17T13:30:44.267Z,1022.55
2017-02-17T13:31:53.330Z,1022.51
2017-02-17T13:33:02.798Z,1022.54
2017-02-17T13:34:12.636Z,1022.56
2017-02-17T13:35:21.714Z,1022.54
2017-02-17T13:36:30.785Z,1022.56
2017-02-17T13:37:40.263Z,1022.61
2017-02-17T13:38:49.753Z,1022.6
2017-02-17T13:39:59.967Z,1022.57
2017-02-17T13:41:09.052Z,1022.44
2017-02-17T13:42:18.520Z,1022.52
2017-02-17T13:43:28.379Z,1022.51
2017-02-17T13:44:37.467Z,1022.53
2017-02-17T13:45:47.695Z,1022.48
2017-02-17T13:46:56.771Z,1022.49
2017-02-17T13:48:06.233Z,1022.43
2017-02-17T13:49:15.310Z,1022.47
2017-02-17T13:50:24.801Z,1022.45
2017-02-17T13:51:34.627Z,1022.58
2017-02-17T13:52:43.696Z,1022.58
2017-02-17T13:53:52.775Z,1022.58
2017-02-17T13:55:02.988Z,1022.59
2017-02-17T13:56:12.469Z,1022.54
2017-02-17T13:57:21.655Z,1022.6
2017-02-17T13:58:31.518Z,1022.59
2017-02-17T13:59:40.977Z,1022.58
2017-02-17T14:00:50.048Z,1022.69
2017-02-17T14:01:59.140Z,1022.63